sensor_id;sensor_type;location;lat;lon;timestamp;P1;durP1;ratioP1;P2;durP2;ratioP2
2750;SDS011;1383;48.362;10.908;2024-02-14T00:00:02;17.85;;;11.30;;
2750;SDS011;1383;48.362;10.908;2024-02-14T00:02:30;17.15;;;12.00;;
2750;SDS011;1383;48.362;10.908;2024-02-14T00:04:57;15.65;;;10.48;;
2750;SDS011;1383;48.362;10.908;2024-02-14T00:07:24;17.30;;;12.35;;
2750;SDS011;1383;48.362;10.908;2024-02-14T00:09:53;14.18;;;9.45;;
2750;SDS011;1383;48.362;10.908;2024-02-14T00:12:20;13.55;;;9.05;;
2750;SDS011;1383;48.362;10.908;2024-02-14T00:14:47;12.98;;;8.88;;
2750;SDS011;1383;48.362;10.908;2024-02-14T00:17:15;13.68;;;9.15;;
2750;SDS011;1383;48.362;10.908;2024-02-14T00:19:41;20.80;;;9.75;;
2750;SDS011;1383;48.362;10.908;2024-02-14T00:22:08;12.70;;;8.30;;
2750;SDS011;1383;48.362;10.908;2024-02-14T00:24:35;10.18;;;8.70;;
2750;SDS011;1383;48.362;10.908;2024-02-14T00:27:02;11.73;;;8.48;;
2750;SDS011;1383;48.362;10.908;2024-02-14T00:29:30;11.55;;;8.90;;
2750;SDS011;1383;48.362;10.908;2024-02-14T00:31:56;10.05;;;7.88;;
2750;SDS011;1383;48.362;10.908;2024-02-14T00:34:23;10.73;;;8.70;;
2750;SDS011;1383;48.362;10.908;2024-02-14T00:36:50;10.20;;;7.93;;
2750;SDS011;1383;48.362;10.908;2024-02-14T00:39:18;14.05;;;9.15;;
2750;SDS011;1383;48.362;10.908;2024-02-14T00:41:48;10.88;;;8.88;;
2750;SDS011;1383;48.362;10.908;2024-02-14T00:44:16;8.85;;;7.82;;
2750;SDS011;1383;48.362;10.908;2024-02-14T00:46:45;17.90;;;11.50;;
2750;SDS011;1383;48.362;10.908;2024-02-14T00:49:12;16.05;;;9.45;;
2750;SDS011;1383;48.362;10.908;2024-02-14T00:51:40;13.05;;;9.50;;
2750;SDS011;1383;48.362;10.908;2024-02-14T00:54:07;10.68;;;8.98;;
2750;SDS011;1383;48.362;10.908;2024-02-14T00:56:34;11.77;;;7.88;;
2750;SDS011;1383;48.362;10.908;2024-02-14T00:59:02;14.13;;;7.82;;
2750;SDS011;1383;48.362;10.908;2024-02-14T01:01:29;8.40;;;7.57;;
2750;SDS011;1383;48.362;10.908;2024-02-14T01:03:55;11.25;;;9.45;;
2750;SDS011;1383;48.362;10.908;2024-02-14T01:06:22;11.07;;;8.52;;
2750;SDS011;1383;48.362;10.908;2024-02-14T01:08:51;11.93;;;9.00;;
2750;SDS011;1383;48.362;10.908;2024-02-14T01:11:18;11.05;;;7.95;;
2750;SDS011;1383;48.362;10.908;2024-02-14T01:13:44;8.93;;;6.28;;
2750;SDS011;1383;48.362;10.908;2024-02-14T01:16:12;8.10;;;7.03;;
2750;SDS011;1383;48.362;10.908;2024-02-14T01:18:38;8.75;;;6.13;;
2750;SDS011;1383;48.362;10.908;2024-02-14T01:21:06;7.10;;;6.38;;
2750;SDS011;1383;48.362;10.908;2024-02-14T01:23:33;7.07;;;6.18;;
2750;SDS011;1383;48.362;10.908;2024-02-14T01:26:00;8.05;;;6.30;;
2750;SDS011;1383;48.362;10.908;2024-02-14T01:28:28;6.53;;;5.80;;
2750;SDS011;1383;48.362;10.908;2024-02-14T01:30:55;8.35;;;5.95;;
2750;SDS011;1383;48.362;10.908;2024-02-14T01:33:23;7.05;;;5.05;;
2750;SDS011;1383;48.362;10.908;2024-02-14T01:35:50;7.57;;;6.18;;
2750;SDS011;1383;48.362;10.908;2024-02-14T01:38:17;6.05;;;4.82;;
2750;SDS011;1383;48.362;10.908;2024-02-14T01:40:44;15.77;;;10.57;;
2750;SDS011;1383;48.362;10.908;2024-02-14T01:43:11;11.35;;;5.10;;
2750;SDS011;1383;48.362;10.908;2024-02-14T01:45:40;7.45;;;5.93;;
2750;SDS011;1383;48.362;10.908;2024-02-14T01:48:07;6.55;;;5.35;;
2750;SDS011;1383;48.362;10.908;2024-02-14T01:50:35;6.72;;;5.05;;
2750;SDS011;1383;48.362;10.908;2024-02-14T01:53:03;6.10;;;5.50;;
2750;SDS011;1383;48.362;10.908;2024-02-14T01:55:30;7.57;;;5.00;;
2750;SDS011;1383;48.362;10.908;2024-02-14T01:57:58;6.20;;;4.63;;
2750;SDS011;1383;48.362;10.908;2024-02-14T02:00:25;6.75;;;5.75;;
2750;SDS011;1383;48.362;10.908;2024-02-14T02:02:52;5.05;;;4.20;;
2750;SDS011;1383;48.362;10.908;2024-02-14T02:05:20;5.22;;;4.70;;
2750;SDS011;1383;48.362;10.908;2024-02-14T02:07:47;5.57;;;4.20;;
2750;SDS011;1383;48.362;10.908;2024-02-14T02:10:15;6.20;;;4.93;;
2750;SDS011;1383;48.362;10.908;2024-02-14T02:12:42;5.47;;;4.97;;
2750;SDS011;1383;48.362;10.908;2024-02-14T02:15:10;5.13;;;4.25;;
2750;SDS011;1383;48.362;10.908;2024-02-14T02:17:39;7.28;;;5.25;;
2750;SDS011;1383;48.362;10.908;2024-02-14T02:20:06;8.98;;;4.65;;
2750;SDS011;1383;48.362;10.908;2024-02-14T02:22:35;5.53;;;3.92;;
2750;SDS011;1383;48.362;10.908;2024-02-14T02:25:02;6.30;;;4.22;;
2750;SDS011;1383;48.362;10.908;2024-02-14T02:27:33;6.45;;;4.15;;
2750;SDS011;1383;48.362;10.908;2024-02-14T02:30:07;5.05;;;4.22;;
2750;SDS011;1383;48.362;10.908;2024-02-14T02:32:40;4.57;;;4.18;;
2750;SDS011;1383;48.362;10.908;2024-02-14T02:35:09;4.70;;;3.90;;
2750;SDS011;1383;48.362;10.908;2024-02-14T02:37:36;4.70;;;3.58;;
2750;SDS011;1383;48.362;10.908;2024-02-14T02:40:03;4.07;;;3.67;;
2750;SDS011;1383;48.362;10.908;2024-02-14T02:42:31;3.90;;;3.50;;
2750;SDS011;1383;48.362;10.908;2024-02-14T02:44:57;6.15;;;4.70;;
2750;SDS011;1383;48.362;10.908;2024-02-14T02:47:24;6.25;;;3.45;;
2750;SDS011;1383;48.362;10.908;2024-02-14T02:49:51;6.75;;;4.00;;
2750;SDS011;1383;48.362;10.908;2024-02-14T02:52:19;5.15;;;3.67;;
2750;SDS011;1383;48.362;10.908;2024-02-14T02:54:46;5.40;;;3.90;;
2750;SDS011;1383;48.362;10.908;2024-02-14T02:57:13;7.43;;;4.25;;
2750;SDS011;1383;48.362;10.908;2024-02-14T02:59:40;6.75;;;4.20;;
2750;SDS011;1383;48.362;10.908;2024-02-14T03:02:09;4.78;;;3.72;;
2750;SDS011;1383;48.362;10.908;2024-02-14T03:04:38;5.55;;;4.45;;
2750;SDS011;1383;48.362;10.908;2024-02-14T03:07:17;5.93;;;3.65;;
2750;SDS011;1383;48.362;10.908;2024-02-14T03:09:45;4.40;;;3.50;;
2750;SDS011;1383;48.362;10.908;2024-02-14T03:12:12;11.40;;;5.28;;
2750;SDS011;1383;48.362;10.908;2024-02-14T03:14:42;7.45;;;3.70;;
2750;SDS011;1383;48.362;10.908;2024-02-14T03:17:10;4.60;;;3.33;;
2750;SDS011;1383;48.362;10.908;2024-02-14T03:19:37;5.38;;;3.60;;
2750;SDS011;1383;48.362;10.908;2024-02-14T03:22:06;4.57;;;3.47;;
2750;SDS011;1383;48.362;10.908;2024-02-14T03:24:35;5.30;;;3.45;;
2750;SDS011;1383;48.362;10.908;2024-02-14T03:27:03;4.95;;;3.05;;
2750;SDS011;1383;48.362;10.908;2024-02-14T03:29:31;4.53;;;3.13;;
2750;SDS011;1383;48.362;10.908;2024-02-14T03:31:59;4.05;;;3.45;;
2750;SDS011;1383;48.362;10.908;2024-02-14T03:34:30;4.68;;;3.47;;
2750;SDS011;1383;48.362;10.908;2024-02-14T03:37:00;3.88;;;2.88;;
2750;SDS011;1383;48.362;10.908;2024-02-14T03:39:29;4.05;;;3.65;;
2750;SDS011;1383;48.362;10.908;2024-02-14T03:41:57;2.88;;;2.60;;
2750;SDS011;1383;48.362;10.908;2024-02-14T03:44:27;3.80;;;3.42;;
2750;SDS011;1383;48.362;10.908;2024-02-14T03:46:54;3.50;;;2.60;;
2750;SDS011;1383;48.362;10.908;2024-02-14T03:49:21;3.40;;;3.08;;
2750;SDS011;1383;48.362;10.908;2024-02-14T03:51:48;9.45;;;3.20;;
2750;SDS011;1383;48.362;10.908;2024-02-14T03:54:19;3.88;;;2.95;;
2750;SDS011;1383;48.362;10.908;2024-02-14T03:56:47;2.60;;;2.40;;
2750;SDS011;1383;48.362;10.908;2024-02-14T03:59:13;3.20;;;2.80;;
2750;SDS011;1383;48.362;10.908;2024-02-14T04:01:44;4.65;;;2.90;;
2750;SDS011;1383;48.362;10.908;2024-02-14T04:04:11;2.65;;;2.30;;
2750;SDS011;1383;48.362;10.908;2024-02-14T04:06:38;6.18;;;2.97;;
2750;SDS011;1383;48.362;10.908;2024-02-14T04:09:05;2.67;;;2.35;;
2750;SDS011;1383;48.362;10.908;2024-02-14T04:11:35;3.47;;;2.70;;
2750;SDS011;1383;48.362;10.908;2024-02-14T04:14:02;4.45;;;2.85;;
2750;SDS011;1383;48.362;10.908;2024-02-14T04:16:29;3.35;;;2.13;;
2750;SDS011;1383;48.362;10.908;2024-02-14T04:18:56;4.25;;;2.70;;
2750;SDS011;1383;48.362;10.908;2024-02-14T04:21:23;5.50;;;2.90;;
2750;SDS011;1383;48.362;10.908;2024-02-14T04:23:50;2.83;;;2.38;;
2750;SDS011;1383;48.362;10.908;2024-02-14T04:26:20;2.42;;;2.13;;
2750;SDS011;1383;48.362;10.908;2024-02-14T04:28:47;2.95;;;2.33;;
2750;SDS011;1383;48.362;10.908;2024-02-14T04:31:14;2.70;;;2.00;;
2750;SDS011;1383;48.362;10.908;2024-02-14T04:33:42;3.40;;;2.55;;
2750;SDS011;1383;48.362;10.908;2024-02-14T04:36:09;2.65;;;2.00;;
2750;SDS011;1383;48.362;10.908;2024-02-14T04:38:38;2.72;;;2.53;;
2750;SDS011;1383;48.362;10.908;2024-02-14T04:41:05;2.58;;;2.28;;
2750;SDS011;1383;48.362;10.908;2024-02-14T04:43:32;2.80;;;1.95;;
2750;SDS011;1383;48.362;10.908;2024-02-14T04:45:58;3.25;;;2.70;;
2750;SDS011;1383;48.362;10.908;2024-02-14T04:48:26;1.77;;;1.67;;
2750;SDS011;1383;48.362;10.908;2024-02-14T04:50:53;3.38;;;2.70;;
2750;SDS011;1383;48.362;10.908;2024-02-14T04:53:20;3.15;;;2.03;;
2750;SDS011;1383;48.362;10.908;2024-02-14T04:55:47;2.28;;;1.98;;
2750;SDS011;1383;48.362;10.908;2024-02-14T04:58:14;4.07;;;2.42;;
2750;SDS011;1383;48.362;10.908;2024-02-14T05:00:41;3.15;;;2.15;;
2750;SDS011;1383;48.362;10.908;2024-02-14T05:03:08;3.15;;;1.85;;
2750;SDS011;1383;48.362;10.908;2024-02-14T05:05:36;2.40;;;2.20;;
2750;SDS011;1383;48.362;10.908;2024-02-14T05:08:04;2.55;;;2.35;;
2750;SDS011;1383;48.362;10.908;2024-02-14T05:10:31;2.22;;;2.03;;
2750;SDS011;1383;48.362;10.908;2024-02-14T05:12:59;3.05;;;2.13;;
2750;SDS011;1383;48.362;10.908;2024-02-14T05:15:27;1.80;;;1.70;;
2750;SDS011;1383;48.362;10.908;2024-02-14T05:17:55;2.92;;;2.72;;
2750;SDS011;1383;48.362;10.908;2024-02-14T05:20:22;4.72;;;2.40;;
2750;SDS011;1383;48.362;10.908;2024-02-14T05:22:49;2.83;;;2.47;;
2750;SDS011;1383;48.362;10.908;2024-02-14T05:25:16;3.03;;;2.78;;
2750;SDS011;1383;48.362;10.908;2024-02-14T05:27:44;3.22;;;2.92;;
2750;SDS011;1383;48.362;10.908;2024-02-14T05:30:13;4.63;;;2.60;;
2750;SDS011;1383;48.362;10.908;2024-02-14T05:32:41;5.50;;;3.08;;
2750;SDS011;1383;48.362;10.908;2024-02-14T05:35:07;3.78;;;2.90;;
2750;SDS011;1383;48.362;10.908;2024-02-14T05:37:36;3.90;;;2.80;;
2750;SDS011;1383;48.362;10.908;2024-02-14T05:40:04;4.45;;;2.80;;
2750;SDS011;1383;48.362;10.908;2024-02-14T05:42:33;6.35;;;2.63;;
2750;SDS011;1383;48.362;10.908;2024-02-14T05:45:01;2.88;;;2.40;;
2750;SDS011;1383;48.362;10.908;2024-02-14T05:47:29;4.07;;;3.20;;
2750;SDS011;1383;48.362;10.908;2024-02-14T05:49:57;2.80;;;2.45;;
2750;SDS011;1383;48.362;10.908;2024-02-14T05:52:25;2.42;;;1.90;;
2750;SDS011;1383;48.362;10.908;2024-02-14T05:54:52;5.72;;;2.25;;
2750;SDS011;1383;48.362;10.908;2024-02-14T05:57:20;3.10;;;2.30;;
2750;SDS011;1383;48.362;10.908;2024-02-14T05:59:47;3.80;;;2.80;;
2750;SDS011;1383;48.362;10.908;2024-02-14T06:02:14;4.95;;;2.65;;
2750;SDS011;1383;48.362;10.908;2024-02-14T06:04:40;5.05;;;2.35;;
2750;SDS011;1383;48.362;10.908;2024-02-14T06:07:09;5.90;;;2.80;;
2750;SDS011;1383;48.362;10.908;2024-02-14T06:09:38;3.58;;;2.63;;
2750;SDS011;1383;48.362;10.908;2024-02-14T06:12:05;5.05;;;2.75;;
2750;SDS011;1383;48.362;10.908;2024-02-14T06:14:33;2.33;;;2.03;;
2750;SDS011;1383;48.362;10.908;2024-02-14T06:17:01;3.83;;;3.13;;
2750;SDS011;1383;48.362;10.908;2024-02-14T06:19:28;2.83;;;2.00;;
2750;SDS011;1383;48.362;10.908;2024-02-14T06:21:55;2.22;;;1.98;;
2750;SDS011;1383;48.362;10.908;2024-02-14T06:24:22;3.33;;;2.47;;
2750;SDS011;1383;48.362;10.908;2024-02-14T06:26:49;3.00;;;2.58;;
2750;SDS011;1383;48.362;10.908;2024-02-14T06:29:16;2.92;;;2.20;;
2750;SDS011;1383;48.362;10.908;2024-02-14T06:31:43;3.88;;;3.53;;
2750;SDS011;1383;48.362;10.908;2024-02-14T06:34:09;2.28;;;2.05;;
2750;SDS011;1383;48.362;10.908;2024-02-14T06:36:37;2.83;;;2.30;;
2750;SDS011;1383;48.362;10.908;2024-02-14T06:39:04;8.25;;;2.60;;
2750;SDS011;1383;48.362;10.908;2024-02-14T06:41:33;3.47;;;2.75;;
2750;SDS011;1383;48.362;10.908;2024-02-14T06:44:00;3.10;;;2.13;;
2750;SDS011;1383;48.362;10.908;2024-02-14T06:46:27;4.60;;;2.20;;
2750;SDS011;1383;48.362;10.908;2024-02-14T06:48:53;4.65;;;2.80;;
2750;SDS011;1383;48.362;10.908;2024-02-14T06:51:23;7.83;;;3.50;;
2750;SDS011;1383;48.362;10.908;2024-02-14T06:53:50;2.83;;;2.53;;
2750;SDS011;1383;48.362;10.908;2024-02-14T06:56:17;6.10;;;2.93;;
2750;SDS011;1383;48.362;10.908;2024-02-14T06:58:44;4.13;;;2.47;;
2750;SDS011;1383;48.362;10.908;2024-02-14T07:01:11;3.40;;;2.50;;
2750;SDS011;1383;48.362;10.908;2024-02-14T07:03:39;3.00;;;2.17;;
2750;SDS011;1383;48.362;10.908;2024-02-14T07:06:07;5.80;;;3.00;;
2750;SDS011;1383;48.362;10.908;2024-02-14T07:08:34;3.00;;;2.08;;
2750;SDS011;1383;48.362;10.908;2024-02-14T07:11:01;6.20;;;2.47;;
2750;SDS011;1383;48.362;10.908;2024-02-14T07:13:27;12.30;;;2.88;;
2750;SDS011;1383;48.362;10.908;2024-02-14T07:15:54;4.70;;;2.30;;
2750;SDS011;1383;48.362;10.908;2024-02-14T07:18:21;4.38;;;3.45;;
2750;SDS011;1383;48.362;10.908;2024-02-14T07:20:48;3.83;;;2.17;;
2750;SDS011;1383;48.362;10.908;2024-02-14T07:23:15;2.53;;;2.33;;
2750;SDS011;1383;48.362;10.908;2024-02-14T07:25:42;2.30;;;1.83;;
2750;SDS011;1383;48.362;10.908;2024-02-14T07:28:09;4.13;;;2.47;;
2750;SDS011;1383;48.362;10.908;2024-02-14T07:30:36;5.57;;;1.70;;
2750;SDS011;1383;48.362;10.908;2024-02-14T07:33:03;4.80;;;2.10;;
2750;SDS011;1383;48.362;10.908;2024-02-14T07:35:31;6.50;;;2.55;;
2750;SDS011;1383;48.362;10.908;2024-02-14T07:37:57;10.18;;;2.63;;
2750;SDS011;1383;48.362;10.908;2024-02-14T07:40:24;4.53;;;2.90;;
2750;SDS011;1383;48.362;10.908;2024-02-14T07:42:51;6.97;;;3.03;;
2750;SDS011;1383;48.362;10.908;2024-02-14T07:45:18;3.13;;;1.80;;
2750;SDS011;1383;48.362;10.908;2024-02-14T07:47:45;3.30;;;1.90;;
2750;SDS011;1383;48.362;10.908;2024-02-14T07:50:12;3.67;;;1.70;;
2750;SDS011;1383;48.362;10.908;2024-02-14T07:52:41;5.90;;;2.07;;
2750;SDS011;1383;48.362;10.908;2024-02-14T07:55:10;1.70;;;1.60;;
2750;SDS011;1383;48.362;10.908;2024-02-14T07:57:38;9.23;;;6.77;;
2750;SDS011;1383;48.362;10.908;2024-02-14T08:00:06;5.77;;;3.87;;
2750;SDS011;1383;48.362;10.908;2024-02-14T08:02:38;3.17;;;1.97;;
2750;SDS011;1383;48.362;10.908;2024-02-14T08:05:04;9.53;;;4.40;;
2750;SDS011;1383;48.362;10.908;2024-02-14T08:07:32;3.60;;;1.73;;
2750;SDS011;1383;48.362;10.908;2024-02-14T08:09:59;2.17;;;1.90;;
2750;SDS011;1383;48.362;10.908;2024-02-14T08:12:25;2.57;;;1.53;;
2750;SDS011;1383;48.362;10.908;2024-02-14T08:14:52;1.70;;;1.60;;
2750;SDS011;1383;48.362;10.908;2024-02-14T08:17:19;3.27;;;2.00;;
2750;SDS011;1383;48.362;10.908;2024-02-14T08:19:46;3.57;;;1.73;;
2750;SDS011;1383;48.362;10.908;2024-02-14T08:22:14;9.80;;;2.23;;
2750;SDS011;1383;48.362;10.908;2024-02-14T08:24:41;4.23;;;1.73;;
2750;SDS011;1383;48.362;10.908;2024-02-14T08:27:08;1.77;;;1.30;;
2750;SDS011;1383;48.362;10.908;2024-02-14T08:29:35;6.47;;;2.00;;
2750;SDS011;1383;48.362;10.908;2024-02-14T08:32:02;2.90;;;1.60;;
2750;SDS011;1383;48.362;10.908;2024-02-14T08:34:29;3.80;;;1.67;;
2750;SDS011;1383;48.362;10.908;2024-02-14T08:36:57;2.13;;;1.37;;
2750;SDS011;1383;48.362;10.908;2024-02-14T08:39:24;2.50;;;2.10;;
2750;SDS011;1383;48.362;10.908;2024-02-14T08:41:52;1.93;;;1.20;;
2750;SDS011;1383;48.362;10.908;2024-02-14T08:44:19;2.07;;;1.70;;
2750;SDS011;1383;48.362;10.908;2024-02-14T08:46:46;1.67;;;1.40;;
2750;SDS011;1383;48.362;10.908;2024-02-14T08:49:15;2.10;;;1.07;;
2750;SDS011;1383;48.362;10.908;2024-02-14T08:51:42;2.23;;;1.20;;
2750;SDS011;1383;48.362;10.908;2024-02-14T08:54:12;2.63;;;1.60;;
2750;SDS011;1383;48.362;10.908;2024-02-14T08:56:40;2.30;;;1.40;;
2750;SDS011;1383;48.362;10.908;2024-02-14T08:59:06;2.60;;;1.57;;
2750;SDS011;1383;48.362;10.908;2024-02-14T09:01:33;1.83;;;1.50;;
2750;SDS011;1383;48.362;10.908;2024-02-14T09:04:02;1.73;;;1.33;;
2750;SDS011;1383;48.362;10.908;2024-02-14T09:06:29;2.63;;;1.23;;
2750;SDS011;1383;48.362;10.908;2024-02-14T09:08:56;4.00;;;1.27;;
2750;SDS011;1383;48.362;10.908;2024-02-14T09:11:23;3.20;;;1.80;;
2750;SDS011;1383;48.362;10.908;2024-02-14T09:13:52;2.60;;;1.70;;
2750;SDS011;1383;48.362;10.908;2024-02-14T09:16:22;2.50;;;1.37;;
2750;SDS011;1383;48.362;10.908;2024-02-14T09:18:49;2.00;;;1.80;;
2750;SDS011;1383;48.362;10.908;2024-02-14T09:21:16;6.40;;;2.20;;
2750;SDS011;1383;48.362;10.908;2024-02-14T09:23:46;2.20;;;1.40;;
2750;SDS011;1383;48.362;10.908;2024-02-14T09:26:14;2.20;;;1.50;;
2750;SDS011;1383;48.362;10.908;2024-02-14T09:28:43;5.20;;;1.43;;
2750;SDS011;1383;48.362;10.908;2024-02-14T09:31:10;2.80;;;2.00;;
2750;SDS011;1383;48.362;10.908;2024-02-14T09:33:38;1.93;;;1.33;;
2750;SDS011;1383;48.362;10.908;2024-02-14T09:36:06;2.07;;;1.57;;
2750;SDS011;1383;48.362;10.908;2024-02-14T09:38:33;2.90;;;1.20;;
2750;SDS011;1383;48.362;10.908;2024-02-14T09:41:05;1.83;;;0.97;;
2750;SDS011;1383;48.362;10.908;2024-02-14T09:43:48;2.10;;;1.60;;
2750;SDS011;1383;48.362;10.908;2024-02-14T09:46:15;8.87;;;6.60;;
2750;SDS011;1383;48.362;10.908;2024-02-14T09:48:43;2.30;;;1.30;;
2750;SDS011;1383;48.362;10.908;2024-02-14T09:51:12;2.70;;;1.40;;
2750;SDS011;1383;48.362;10.908;2024-02-14T09:53:40;2.50;;;1.90;;
2750;SDS011;1383;48.362;10.908;2024-02-14T09:56:10;3.00;;;1.50;;
2750;SDS011;1383;48.362;10.908;2024-02-14T09:58:39;1.33;;;0.90;;
2750;SDS011;1383;48.362;10.908;2024-02-14T10:04:55;2.60;;;1.30;;
2750;SDS011;1383;48.362;10.908;2024-02-14T10:07:26;1.80;;;1.43;;
2750;SDS011;1383;48.362;10.908;2024-02-14T10:10:13;5.30;;;1.43;;
2750;SDS011;1383;48.362;10.908;2024-02-14T10:12:43;1.33;;;1.20;;
2750;SDS011;1383;48.362;10.908;2024-02-14T10:15:11;1.30;;;1.20;;
2750;SDS011;1383;48.362;10.908;2024-02-14T10:17:41;1.60;;;1.33;;
2750;SDS011;1383;48.362;10.908;2024-02-14T10:20:08;1.43;;;1.23;;
2750;SDS011;1383;48.362;10.908;2024-02-14T10:22:45;3.30;;;1.50;;
2750;SDS011;1383;48.362;10.908;2024-02-14T10:25:12;3.53;;;1.20;;
2750;SDS011;1383;48.362;10.908;2024-02-14T10:27:41;1.80;;;1.10;;
2750;SDS011;1383;48.362;10.908;2024-02-14T10:30:08;1.67;;;1.43;;
2750;SDS011;1383;48.362;10.908;2024-02-14T10:32:37;1.50;;;1.40;;
2750;SDS011;1383;48.362;10.908;2024-02-14T10:35:05;1.40;;;1.30;;
2750;SDS011;1383;48.362;10.908;2024-02-14T10:37:37;1.30;;;1.03;;
2750;SDS011;1383;48.362;10.908;2024-02-14T10:40:04;1.23;;;1.13;;
2750;SDS011;1383;48.362;10.908;2024-02-14T10:42:32;2.10;;;1.47;;
2750;SDS011;1383;48.362;10.908;2024-02-14T10:45:00;1.20;;;1.07;;
2750;SDS011;1383;48.362;10.908;2024-02-14T10:47:32;1.87;;;1.50;;
2750;SDS011;1383;48.362;10.908;2024-02-14T10:50:06;1.33;;;0.90;;
2750;SDS011;1383;48.362;10.908;2024-02-14T10:52:36;1.90;;;1.07;;
2750;SDS011;1383;48.362;10.908;2024-02-14T10:55:10;1.17;;;1.07;;
2750;SDS011;1383;48.362;10.908;2024-02-14T10:57:38;1.90;;;1.10;;
2750;SDS011;1383;48.362;10.908;2024-02-14T11:03:24;3.00;;;1.57;;
2750;SDS011;1383;48.362;10.908;2024-02-14T11:11:34;1.20;;;1.07;;
2750;SDS011;1383;48.362;10.908;2024-02-14T11:14:16;1.47;;;0.80;;
2750;SDS011;1383;48.362;10.908;2024-02-14T11:17:02;1.90;;;1.33;;
2750;SDS011;1383;48.362;10.908;2024-02-14T11:20:14;0.90;;;0.90;;
2750;SDS011;1383;48.362;10.908;2024-02-14T11:23:03;12.57;;;2.57;;
2750;SDS011;1383;48.362;10.908;2024-02-14T11:26:07;2.30;;;1.20;;
2750;SDS011;1383;48.362;10.908;2024-02-14T11:29:01;1.93;;;1.50;;
2750;SDS011;1383;48.362;10.908;2024-02-14T11:31:36;4.00;;;1.67;;
2750;SDS011;1383;48.362;10.908;2024-02-14T11:34:13;1.90;;;1.07;;
2750;SDS011;1383;48.362;10.908;2024-02-14T11:36:51;2.20;;;1.63;;
2750;SDS011;1383;48.362;10.908;2024-02-14T11:39:35;1.33;;;1.13;;
2750;SDS011;1383;48.362;10.908;2024-02-14T11:42:11;4.93;;;1.00;;
2750;SDS011;1383;48.362;10.908;2024-02-14T11:44:42;2.03;;;1.17;;
2750;SDS011;1383;48.362;10.908;2024-02-14T11:47:12;2.17;;;1.40;;
2750;SDS011;1383;48.362;10.908;2024-02-14T11:49:40;1.63;;;1.53;;
2750;SDS011;1383;48.362;10.908;2024-02-14T11:52:12;1.33;;;1.23;;
2750;SDS011;1383;48.362;10.908;2024-02-14T11:54:45;5.77;;;1.13;;
2750;SDS011;1383;48.362;10.908;2024-02-14T11:57:34;2.70;;;1.50;;
2750;SDS011;1383;48.362;10.908;2024-02-14T12:00:03;1.60;;;0.93;;
2750;SDS011;1383;48.362;10.908;2024-02-14T12:02:35;4.07;;;2.90;;
2750;SDS011;1383;48.362;10.908;2024-02-14T12:05:02;2.60;;;2.13;;
2750;SDS011;1383;48.362;10.908;2024-02-14T12:07:40;1.10;;;1.00;;
2750;SDS011;1383;48.362;10.908;2024-02-14T12:10:55;2.80;;;1.70;;
2750;SDS011;1383;48.362;10.908;2024-02-14T12:13:53;2.33;;;1.57;;
2750;SDS011;1383;48.362;10.908;2024-02-14T12:16:20;2.37;;;2.17;;
2750;SDS011;1383;48.362;10.908;2024-02-14T12:18:47;2.43;;;1.57;;
2750;SDS011;1383;48.362;10.908;2024-02-14T12:21:14;2.40;;;1.10;;
2750;SDS011;1383;48.362;10.908;2024-02-14T12:23:45;1.60;;;1.37;;
2750;SDS011;1383;48.362;10.908;2024-02-14T12:26:54;2.50;;;1.40;;
2750;SDS011;1383;48.362;10.908;2024-02-14T12:33:37;1.73;;;0.77;;
2750;SDS011;1383;48.362;10.908;2024-02-14T12:36:17;1.30;;;1.20;;
2750;SDS011;1383;48.362;10.908;2024-02-14T12:38:47;1.23;;;1.10;;
2750;SDS011;1383;48.362;10.908;2024-02-14T12:41:14;1.23;;;1.00;;
2750;SDS011;1383;48.362;10.908;2024-02-14T12:43:41;1.13;;;1.00;;
2750;SDS011;1383;48.362;10.908;2024-02-14T12:46:11;1.97;;;1.33;;
2750;SDS011;1383;48.362;10.908;2024-02-14T12:48:38;1.53;;;0.80;;
2750;SDS011;1383;48.362;10.908;2024-02-14T12:51:05;1.90;;;0.97;;
2750;SDS011;1383;48.362;10.908;2024-02-14T12:53:32;0.70;;;0.70;;
2750;SDS011;1383;48.362;10.908;2024-02-14T12:56:00;1.00;;;0.90;;
2750;SDS011;1383;48.362;10.908;2024-02-14T12:58:27;1.30;;;1.00;;
2750;SDS011;1383;48.362;10.908;2024-02-14T13:00:54;1.70;;;0.90;;
2750;SDS011;1383;48.362;10.908;2024-02-14T13:03:22;1.07;;;0.97;;
2750;SDS011;1383;48.362;10.908;2024-02-14T13:05:49;2.77;;;1.00;;
2750;SDS011;1383;48.362;10.908;2024-02-14T13:08:17;1.90;;;0.80;;
2750;SDS011;1383;48.362;10.908;2024-02-14T13:10:44;2.00;;;0.80;;
2750;SDS011;1383;48.362;10.908;2024-02-14T13:13:11;1.40;;;0.90;;
2750;SDS011;1383;48.362;10.908;2024-02-14T13:15:40;1.90;;;1.10;;
2750;SDS011;1383;48.362;10.908;2024-02-14T13:18:09;2.10;;;1.67;;
2750;SDS011;1383;48.362;10.908;2024-02-14T13:20:36;1.90;;;1.30;;
2750;SDS011;1383;48.362;10.908;2024-02-14T13:23:04;2.10;;;1.20;;
2750;SDS011;1383;48.362;10.908;2024-02-14T13:25:35;1.30;;;0.87;;
2750;SDS011;1383;48.362;10.908;2024-02-14T13:28:04;1.00;;;0.80;;
2750;SDS011;1383;48.362;10.908;2024-02-14T13:30:32;1.27;;;0.87;;
2750;SDS011;1383;48.362;10.908;2024-02-14T13:32:59;1.40;;;1.20;;
2750;SDS011;1383;48.362;10.908;2024-02-14T13:35:26;1.90;;;0.90;;
2750;SDS011;1383;48.362;10.908;2024-02-14T13:37:54;1.50;;;0.73;;
2750;SDS011;1383;48.362;10.908;2024-02-14T13:40:22;1.27;;;1.17;;
2750;SDS011;1383;48.362;10.908;2024-02-14T13:42:50;0.83;;;0.80;;
2750;SDS011;1383;48.362;10.908;2024-02-14T13:45:20;1.07;;;0.97;;
2750;SDS011;1383;48.362;10.908;2024-02-14T13:47:48;1.47;;;1.00;;
2750;SDS011;1383;48.362;10.908;2024-02-14T13:50:15;1.13;;;0.90;;
2750;SDS011;1383;48.362;10.908;2024-02-14T13:52:42;1.80;;;1.23;;
2750;SDS011;1383;48.362;10.908;2024-02-14T13:55:10;1.13;;;0.90;;
2750;SDS011;1383;48.362;10.908;2024-02-14T13:57:37;2.70;;;1.13;;
2750;SDS011;1383;48.362;10.908;2024-02-14T14:00:06;1.30;;;0.90;;
2750;SDS011;1383;48.362;10.908;2024-02-14T14:02:38;1.00;;;0.90;;
2750;SDS011;1383;48.362;10.908;2024-02-14T14:05:10;1.20;;;0.90;;
2750;SDS011;1383;48.362;10.908;2024-02-14T14:07:42;1.60;;;1.00;;
2750;SDS011;1383;48.362;10.908;2024-02-14T14:10:23;6.53;;;1.40;;
2750;SDS011;1383;48.362;10.908;2024-02-14T14:12:58;2.43;;;1.27;;
2750;SDS011;1383;48.362;10.908;2024-02-14T14:15:31;1.17;;;1.07;;
2750;SDS011;1383;48.362;10.908;2024-02-14T14:18:20;4.57;;;1.10;;
2750;SDS011;1383;48.362;10.908;2024-02-14T14:20:47;1.23;;;0.93;;
2750;SDS011;1383;48.362;10.908;2024-02-14T14:23:20;2.50;;;1.70;;
2750;SDS011;1383;48.362;10.908;2024-02-14T14:25:47;2.00;;;1.33;;
2750;SDS011;1383;48.362;10.908;2024-02-14T14:28:15;1.00;;;0.87;;
2750;SDS011;1383;48.362;10.908;2024-02-14T14:30:41;3.17;;;1.47;;
2750;SDS011;1383;48.362;10.908;2024-02-14T14:33:08;1.30;;;1.13;;
2750;SDS011;1383;48.362;10.908;2024-02-14T14:35:36;1.67;;;1.37;;
2750;SDS011;1383;48.362;10.908;2024-02-14T14:38:03;3.50;;;1.17;;
2750;SDS011;1383;48.362;10.908;2024-02-14T14:40:30;0.80;;;0.77;;
2750;SDS011;1383;48.362;10.908;2024-02-14T14:42:57;1.87;;;1.57;;
2750;SDS011;1383;48.362;10.908;2024-02-14T14:45:25;2.00;;;1.30;;
2750;SDS011;1383;48.362;10.908;2024-02-14T14:47:54;1.80;;;1.10;;
2750;SDS011;1383;48.362;10.908;2024-02-14T14:50:22;1.90;;;1.07;;
2750;SDS011;1383;48.362;10.908;2024-02-14T14:52:51;1.53;;;0.97;;
2750;SDS011;1383;48.362;10.908;2024-02-14T14:55:19;2.10;;;1.20;;
2750;SDS011;1383;48.362;10.908;2024-02-14T14:57:46;4.27;;;0.97;;
2750;SDS011;1383;48.362;10.908;2024-02-14T15:00:13;1.67;;;1.17;;
2750;SDS011;1383;48.362;10.908;2024-02-14T15:02:41;1.40;;;1.03;;
2750;SDS011;1383;48.362;10.908;2024-02-14T15:05:09;0.90;;;0.80;;
2750;SDS011;1383;48.362;10.908;2024-02-14T15:07:40;1.43;;;0.97;;
2750;SDS011;1383;48.362;10.908;2024-02-14T15:10:07;1.50;;;1.20;;
2750;SDS011;1383;48.362;10.908;2024-02-14T15:12:34;1.90;;;1.00;;
2750;SDS011;1383;48.362;10.908;2024-02-14T15:15:02;1.07;;;0.90;;
2750;SDS011;1383;48.362;10.908;2024-02-14T15:17:30;1.43;;;1.33;;
2750;SDS011;1383;48.362;10.908;2024-02-14T15:19:57;1.60;;;1.20;;
2750;SDS011;1383;48.362;10.908;2024-02-14T15:22:23;1.30;;;1.20;;
2750;SDS011;1383;48.362;10.908;2024-02-14T15:24:54;1.57;;;1.10;;
2750;SDS011;1383;48.362;10.908;2024-02-14T15:27:21;5.00;;;1.47;;